Time;durP1;ratioP1;P1;durP2;ratioP2;P2;SDS_P1;SDS_P2;PMS_P1;PMS_P2;Temp;Humidity;BMP_temperature;BMP_pressure;BME280_temperature;BME280_humidity;BME280_pressure;Samples;Min_cycle;Max_cycle;Signal;HPM_P1;HPM_P2
2022/04/02 00:01:52;;;;;;;10.33;9.53;;;6.20;99.90;;;;;;4993795;28;20508;-85
2022/04/02 00:04:18;;;;;;;10.87;10.07;;;6.20;99.90;;;;;;4993589;28;20174;-81
2022/04/02 00:06:43;;;;;;;11.10;10.00;;;6.20;99.90;;;;;;4993504;28;20174;-82
2022/04/02 00:09:09;;;;;;;10.30;9.50;;;6.30;99.90;;;;;;4994218;28;20208;-89
2022/04/02 00:11:35;;;;;;;10.93;10.03;;;6.20;99.90;;;;;;4994888;28;20636;-87
2022/04/02 00:14:01;;;;;;;11.17;10.23;;;6.20;99.90;;;;;;4996988;28;20180;-87
2022/04/02 00:16:27;;;;;;;11.30;10.30;;;6.10;99.90;;;;;;5000547;28;20181;-81
2022/04/02 00:18:53;;;;;;;11.80;10.80;;;6.10;99.90;;;;;;5000214;28;20173;-82
2022/04/02 00:21:19;;;;;;;12.43;11.17;;;6.10;99.90;;;;;;4997994;28;20223;-83
2022/04/02 00:23:46;;;;;;;12.90;11.70;;;6.10;99.90;;;;;;4979699;28;20696;-82
2022/04/02 00:26:14;;;;;;;13.73;11.87;;;6.00;99.90;;;;;;4997024;28;20168;-87
2022/04/02 00:28:41;;;;;;;12.70;11.60;;;6.10;99.90;;;;;;4996869;28;20662;-84
2022/04/02 00:31:08;;;;;;;12.50;11.33;;;6.00;99.90;;;;;;4997393;28;20633;-88
2022/04/02 00:33:34;;;;;;;12.37;11.27;;;6.00;99.90;;;;;;4979543;28;20184;-85
2022/04/02 00:36:01;;;;;;;11.33;10.33;;;6.00;99.90;;;;;;4997013;28;20177;-85
2022/04/02 00:38:27;;;;;;;12.37;11.27;;;6.00;99.90;;;;;;4979566;28;20225;-86
2022/04/02 00:40:53;;;;;;;11.77;10.77;;;6.00;99.90;;;;;;4976252;28;20225;-86
2022/04/02 00:43:31;;;;;;;12.40;11.07;;;6.00;99.90;;;;;;4977546;28;20511;-88
2022/04/02 00:46:00;;;;;;;11.50;10.60;;;5.90;99.90;;;;;;4977864;28;20251;-85
2022/04/02 00:48:27;;;;;;;10.93;10.03;;;6.00;99.90;;;;;;4978327;28;20210;-86
2022/04/02 00:50:58;;;;;;;11.47;10.53;;;6.00;99.90;;;;;;4977689;28;20656;-87
2022/04/02 00:53:27;;;;;;;11.67;10.67;;;6.00;99.90;;;;;;4978052;28;20188;-88
2022/04/02 00:55:53;;;;;;;11.33;10.33;;;6.00;99.90;;;;;;4978906;28;20200;-88
2022/04/02 00:58:19;;;;;;;11.70;10.50;;;6.00;99.90;;;;;;4980225;28;20258;-88
2022/04/02 01:00:45;;;;;;;11.27;10.33;;;6.10;99.90;;;;;;4978148;28;20633;-94
2022/04/02 01:03:11;;;;;;;12.30;11.20;;;6.10;99.90;;;;;;4978395;28;20178;-91
2022/04/02 01:05:40;;;;;;;10.87;9.97;;;6.10;99.90;;;;;;4978167;28;20181;-89
2022/04/02 01:08:06;;;;;;;11.10;10.20;;;6.20;99.90;;;;;;4977813;28;20218;-92
2022/04/02 01:10:33;;;;;;;11.40;10.40;;;6.10;99.90;;;;;;4977809;28;20184;-89
2022/04/02 01:13:00;;;;;;;12.53;11.37;;;6.10;99.90;;;;;;4977612;28;20639;-84
2022/04/02 01:15:27;;;;;;;11.83;10.73;;;6.10;99.90;;;;;;4977859;28;20177;-84
2022/04/02 01:17:54;;;;;;;11.67;10.77;;;6.10;99.90;;;;;;4975440;28;20190;-82
2022/04/02 01:20:20;;;;;;;11.07;10.13;;;6.00;99.90;;;;;;4978068;28;20174;-82
2022/04/02 01:22:47;;;;;;;11.47;10.47;;;6.10;99.90;;;;;;4977587;28;20541;-81
2022/04/02 01:25:12;;;;;;;10.87;9.97;;;6.00;99.90;;;;;;4977249;28;20166;-83
2022/04/02 01:27:39;;;;;;;11.90;10.90;;;6.00;99.90;;;;;;4977310;28;20297;-81
2022/04/02 01:30:06;;;;;;;11.43;10.43;;;6.00;99.90;;;;;;4977123;28;20190;-81
2022/04/02 01:32:33;;;;;;;10.33;9.53;;;6.00;99.90;;;;;;4977032;28;20174;-84
2022/04/02 01:34:59;;;;;;;10.77;9.87;;;5.90;99.90;;;;;;4975792;28;20174;-81
2022/04/02 01:37:25;;;;;;;10.43;9.63;;;6.00;99.90;;;;;;4977431;28;20189;-81
2022/04/02 01:39:51;;;;;;;10.80;9.90;;;6.00;99.90;;;;;;4982195;28;20303;-81
2022/04/02 01:42:24;;;;;;;10.73;9.83;;;5.90;99.90;;;;;;4995293;28;20532;-81
2022/04/02 01:44:54;;;;;;;10.53;9.70;;;5.90;99.90;;;;;;4978106;28;20183;-81
2022/04/02 01:47:20;;;;;;;11.17;10.17;;;5.80;99.90;;;;;;4977780;28;20240;-81
2022/04/02 01:49:47;;;;;;;10.13;9.33;;;5.80;99.90;;;;;;4995467;28;20173;-82
2022/04/02 01:52:16;;;;;;;10.20;9.30;;;5.80;99.90;;;;;;4978134;28;20216;-88
2022/04/02 01:54:43;;;;;;;10.67;9.77;;;5.70;99.90;;;;;;4979206;28;20321;-91
2022/04/02 01:57:09;;;;;;;10.70;9.70;;;5.70;99.90;;;;;;4997675;28;20176;-80
2022/04/02 01:59:35;;;;;;;11.40;10.40;;;5.70;99.90;;;;;;4998080;28;20166;-83
2022/04/02 02:02:01;;;;;;;11.17;10.17;;;5.80;99.90;;;;;;5001588;28;20187;-83
2022/04/02 02:04:28;;;;;;;9.83;9.03;;;5.70;99.90;;;;;;5004349;28;20269;-81
2022/04/02 02:06:54;;;;;;;11.03;10.03;;;5.70;99.90;;;;;;5001103;28;20198;-85
2022/04/02 02:09:19;;;;;;;10.40;9.57;;;5.70;99.90;;;;;;4981204;28;20239;-81
2022/04/02 02:11:46;;;;;;;11.33;10.33;;;5.60;99.90;;;;;;4986923;28;20229;-81
2022/04/02 02:14:12;;;;;;;11.23;10.33;;;5.70;99.90;;;;;;5004959;28;20174;-80
2022/04/02 02:16:37;;;;;;;11.33;10.33;;;5.60;99.90;;;;;;5003656;28;20704;-82
2022/04/02 02:19:03;;;;;;;11.70;10.63;;;5.60;99.90;;;;;;5001795;28;20169;-80
2022/04/02 02:21:29;;;;;;;11.87;10.77;;;5.60;99.90;;;;;;5005872;28;20233;-84
2022/04/02 02:23:56;;;;;;;11.60;10.60;;;5.60;99.90;;;;;;4998589;28;20618;-83
2022/04/02 02:26:22;;;;;;;12.20;11.13;;;5.60;99.90;;;;;;4995623;28;20172;-85
2022/04/02 02:28:49;;;;;;;12.50;11.30;;;5.50;99.90;;;;;;4996022;28;20702;-92
2022/04/02 02:31:15;;;;;;;12.20;11.10;;;5.50;99.90;;;;;;4995723;28;20547;-84
2022/04/02 02:36:25;;;;;;;12.70;11.60;;;5.40;99.90;;;;;;4995126;28;20183;-87
2022/04/02 02:38:51;;;;;;;13.03;11.87;;;5.40;99.90;;;;;;4995164;28;20697;-90
2022/04/02 02:41:17;;;;;;;11.23;10.23;;;5.40;99.90;;;;;;4995158;28;20304;-86
2022/04/02 02:43:43;;;;;;;11.93;10.93;;;5.40;99.90;;;;;;4994955;28;20223;-88
2022/04/02 02:46:14;;;;;;;12.17;11.07;;;5.40;99.90;;;;;;4996832;28;20180;-85
2022/04/02 02:48:46;;;;;;;11.27;10.37;;;5.40;99.90;;;;;;4994714;28;20700;-82
2022/04/02 02:51:13;;;;;;;12.17;11.07;;;5.30;99.90;;;;;;4980068;28;20578;-82
2022/04/02 02:53:39;;;;;;;11.57;10.53;;;5.30;99.90;;;;;;4998100;28;20656;-87
2022/04/02 02:56:05;;;;;;;13.43;12.23;;;5.30;99.90;;;;;;4995213;28;20585;-82
2022/04/02 02:58:31;;;;;;;13.80;12.50;;;5.30;99.90;;;;;;4995590;28;20738;-90
2022/04/02 03:00:57;;;;;;;13.93;12.53;;;5.20;99.90;;;;;;4994715;28;20174;-87
2022/04/02 03:03:24;;;;;;;15.00;13.47;;;5.20;99.90;;;;;;4994452;28;20236;-82
2022/04/02 03:05:50;;;;;;;15.50;13.90;;;5.10;99.90;;;;;;4994451;28;20168;-82
2022/04/02 03:08:16;;;;;;;15.07;13.60;;;5.00;99.90;;;;;;4994475;28;20541;-87
2022/04/02 03:10:44;;;;;;;14.37;12.97;;;5.00;99.90;;;;;;4994625;28;20224;-86
2022/04/02 03:13:11;;;;;;;14.83;13.33;;;4.90;99.90;;;;;;4994512;28;20174;-88
2022/04/02 03:15:37;;;;;;;14.17;12.87;;;4.90;99.90;;;;;;4994565;28;20208;-83
2022/04/02 03:18:04;;;;;;;15.03;13.53;;;5.00;99.90;;;;;;4994187;28;20696;-84
2022/04/02 03:20:31;;;;;;;14.77;13.47;;;5.00;99.90;;;;;;4994562;28;20260;-83
2022/04/02 03:22:57;;;;;;;15.70;14.10;;;4.90;99.90;;;;;;4994944;28;20234;-82
2022/04/02 03:25:22;;;;;;;15.97;14.37;;;5.00;99.90;;;;;;5002637;28;20191;-83
2022/04/02 03:27:48;;;;;;;15.43;13.93;;;4.90;99.90;;;;;;4998622;28;20218;-82
2022/04/02 03:30:17;;;;;;;15.27;13.73;;;4.80;99.90;;;;;;4997951;28;20761;-82
2022/04/02 03:32:43;;;;;;;15.47;13.90;;;4.80;99.90;;;;;;4980582;28;20179;-82
2022/04/02 03:35:09;;;;;;;15.63;14.13;;;4.90;99.90;;;;;;4998127;28;20166;-83
2022/04/02 03:37:36;;;;;;;15.43;13.83;;;4.90;99.90;;;;;;5001147;28;20517;-84
2022/04/02 03:40:07;;;;;;;16.13;14.43;;;4.90;99.90;;;;;;4997573;28;20256;-83
2022/04/02 03:42:34;;;;;;;15.23;13.73;;;4.90;99.90;;;;;;5002220;28;20157;-89
2022/04/02 03:45:00;;;;;;;15.57;14.03;;;4.80;99.90;;;;;;4997504;28;20205;-93
2022/04/02 03:47:26;;;;;;;15.63;14.03;;;4.80;99.90;;;;;;4979994;28;20210;-94
2022/04/02 03:49:52;;;;;;;15.30;13.80;;;4.90;99.90;;;;;;4999119;28;20176;-93
2022/04/02 03:52:18;;;;;;;15.87;14.17;;;4.90;99.90;;;;;;4998698;28;20190;-89
2022/04/02 03:54:44;;;;;;;16.83;15.07;;;4.90;99.90;;;;;;5009714;28;20197;-84
2022/04/02 03:57:15;;;;;;;16.17;14.47;;;4.80;99.90;;;;;;5000049;28;20202;-81
2022/04/02 03:59:42;;;;;;;16.30;14.70;;;4.80;99.90;;;;;;5013830;28;20179;-82
2022/04/02 04:02:08;;;;;;;15.63;14.13;;;4.80;99.90;;;;;;5010381;28;20210;-81
2022/04/02 04:04:38;;;;;;;15.80;14.20;;;4.80;99.90;;;;;;4990064;28;20176;-90
2022/04/02 04:07:04;;;;;;;16.50;14.80;;;4.90;99.90;;;;;;4986662;28;20232;-81
2022/04/02 04:09:30;;;;;;;17.07;15.37;;;4.80;99.90;;;;;;4985301;28;20674;-82
2022/04/02 04:11:57;;;;;;;15.53;14.13;;;4.90;99.90;;;;;;4981901;28;20188;-84
2022/04/02 04:14:24;;;;;;;16.60;14.90;;;4.90;99.90;;;;;;4980312;28;20182;-85
2022/04/02 04:16:50;;;;;;;16.77;15.03;;;4.70;99.90;;;;;;4997472;28;20259;-82
2022/04/02 04:19:16;;;;;;;16.63;14.93;;;4.70;99.90;;;;;;4997218;28;20604;-85
2022/04/02 04:21:43;;;;;;;17.07;15.27;;;4.70;99.90;;;;;;4997350;28;20176;-88
2022/04/02 04:24:10;;;;;;;17.97;15.33;;;4.70;99.90;;;;;;4982591;28;20540;-82
2022/04/02 04:26:36;;;;;;;17.13;15.43;;;4.70;99.90;;;;;;5021611;28;20176;-83
2022/04/02 04:29:02;;;;;;;17.07;15.37;;;4.70;99.90;;;;;;5020932;28;20192;-87
2022/04/02 04:31:29;;;;;;;18.30;16.50;;;4.70;99.90;;;;;;5003393;28;20638;-89
2022/04/02 04:33:55;;;;;;;18.03;16.13;;;4.80;99.90;;;;;;4998551;28;20539;-87
2022/04/02 04:36:22;;;;;;;17.90;16.00;;;4.80;99.90;;;;;;4996798;28;20176;-88
2022/04/02 04:38:49;;;;;;;18.83;16.83;;;4.80;99.90;;;;;;4996577;28;20557;-85
2022/04/02 04:41:17;;;;;;;18.07;16.20;;;4.80;99.90;;;;;;4978351;28;20234;-84
2022/04/02 04:43:43;;;;;;;17.70;15.80;;;4.80;99.90;;;;;;4996438;28;20176;-85
2022/04/02 04:46:10;;;;;;;17.87;15.97;;;4.80;99.90;;;;;;4997426;28;20564;-83
2022/04/02 04:48:36;;;;;;;17.80;15.90;;;4.80;99.90;;;;;;4981911;28;20246;-82
2022/04/02 04:51:03;;;;;;;17.57;15.70;;;4.80;99.90;;;;;;5000057;28;20171;-86
2022/04/02 04:53:28;;;;;;;18.77;16.77;;;4.70;99.90;;;;;;4979364;28;20210;-86
2022/04/02 04:55:54;;;;;;;17.63;15.90;;;4.70;99.90;;;;;;4996028;28;20234;-87
2022/04/02 04:58:20;;;;;;;18.40;16.33;;;4.70;99.90;;;;;;4996433;28;20184;-91
2022/04/02 05:00:47;;;;;;;17.27;15.47;;;4.60;99.90;;;;;;4996729;28;20170;-88
2022/04/02 05:03:13;;;;;;;18.60;16.03;;;4.60;99.90;;;;;;4997103;28;20174;-89
2022/04/02 05:05:39;;;;;;;17.23;15.43;;;4.60;99.90;;;;;;4997567;28;20176;-87
2022/04/02 05:08:08;;;;;;;17.73;15.83;;;4.60;99.90;;;;;;4997053;28;20205;-90
2022/04/02 05:10:35;;;;;;;17.03;15.23;;;4.60;99.90;;;;;;4995246;28;20578;-92
2022/04/02 05:13:02;;;;;;;16.43;14.60;;;4.50;99.90;;;;;;4981997;28;20182;-92
2022/04/02 05:15:28;;;;;;;17.93;16.03;;;4.50;99.90;;;;;;4997347;28;20171;-90
2022/04/02 05:17:55;;;;;;;16.80;15.03;;;4.50;99.90;;;;;;4979517;28;20215;-91
2022/04/02 05:20:21;;;;;;;19.03;15.87;;;4.50;99.90;;;;;;4979933;28;20266;-91
2022/04/02 05:22:47;;;;;;;18.33;15.83;;;4.50;99.90;;;;;;5001603;28;20204;-84
2022/04/02 05:25:14;;;;;;;16.53;14.80;;;4.50;99.90;;;;;;5002417;28;20167;-82
2022/04/02 05:27:40;;;;;;;16.93;15.17;;;4.50;99.90;;;;;;4999066;28;20254;-84
2022/04/02 05:30:07;;;;;;;18.57;16.57;;;4.50;99.90;;;;;;5000495;28;20240;-83
2022/04/02 05:32:33;;;;;;;18.13;15.97;;;4.50;99.90;;;;;;4996133;28;20257;-84
2022/04/02 05:34:59;;;;;;;18.17;16.27;;;4.50;99.90;;;;;;4996622;28;20214;-86
2022/04/02 05:37:25;;;;;;;17.37;15.40;;;4.50;99.90;;;;;;4997321;28;20200;-87
2022/04/02 05:39:51;;;;;;;17.53;15.63;;;4.50;99.90;;;;;;4997536;28;20223;-89
2022/04/02 05:42:17;;;;;;;16.70;14.90;;;4.50;99.90;;;;;;5006380;28;20264;-82
2022/04/02 05:44:43;;;;;;;17.93;15.97;;;4.50;99.90;;;;;;4998268;28;20180;-82
2022/04/02 05:47:09;;;;;;;18.00;16.13;;;4.50;99.90;;;;;;5001238;28;20203;-81
2022/04/02 05:49:36;;;;;;;18.80;16.50;;;4.40;99.90;;;;;;5000832;28;20173;-90
2022/04/02 05:52:03;;;;;;;18.53;16.53;;;4.40;99.90;;;;;;5002512;28;20220;-83
2022/04/02 05:54:29;;;;;;;19.07;17.17;;;4.40;99.90;;;;;;4998368;28;20263;-84
2022/04/02 05:56:55;;;;;;;18.93;16.97;;;4.50;99.90;;;;;;4996161;28;20263;-85
2022/04/02 05:59:21;;;;;;;17.87;15.97;;;4.50;99.90;;;;;;4995539;28;20208;-83
2022/04/02 06:01:48;;;;;;;16.23;14.53;;;4.60;99.90;;;;;;4995310;28;20284;-90
2022/04/02 06:04:14;;;;;;;16.87;15.07;;;4.70;99.90;;;;;;4995413;28;20175;-85
2022/04/02 06:06:40;;;;;;;17.23;15.50;;;4.70;99.90;;;;;;4995524;28;20184;-87
2022/04/02 06:09:06;;;;;;;16.33;14.63;;;4.70;99.90;;;;;;4995166;28;20659;-90
2022/04/02 06:11:32;;;;;;;17.20;15.40;;;4.80;99.90;;;;;;4977351;28;20192;-85
2022/04/02 06:13:58;;;;;;;17.13;15.33;;;4.80;99.90;;;;;;4997297;28;20185;-84
2022/04/02 06:16:25;;;;;;;15.87;14.30;;;4.80;99.90;;;;;;4998270;28;20686;-85
2022/04/02 06:18:51;;;;;;;16.73;14.90;;;4.80;99.90;;;;;;4986739;28;20250;-83
2022/04/02 06:21:18;;;;;;;16.73;14.93;;;4.80;99.90;;;;;;5000819;28;20171;-82
2022/04/02 06:23:43;;;;;;;16.33;14.63;;;4.70;99.90;;;;;;4989878;28;20188;-85
2022/04/02 06:26:10;;;;;;;17.27;15.43;;;4.70;99.90;;;;;;5006287;28;20187;-82
2022/04/02 06:28:40;;;;;;;17.80;15.13;;;4.70;99.90;;;;;;5004547;28;20220;-81
2022/04/02 06:31:06;;;;;;;17.30;15.03;;;4.70;99.90;;;;;;5006659;28;20177;-91
2022/04/02 06:33:33;;;;;;;16.03;14.40;;;4.80;99.90;;;;;;5002922;28;20182;-87
2022/04/02 06:36:00;;;;;;;15.87;14.27;;;5.00;99.90;;;;;;4978583;28;20223;-87
2022/04/02 06:38:26;;;;;;;16.30;14.53;;;5.00;99.90;;;;;;4995575;28;20630;-87
2022/04/02 06:40:53;;;;;;;15.53;13.90;;;5.10;99.90;;;;;;4996044;28;20218;-86
2022/04/02 06:43:19;;;;;;;16.00;14.30;;;5.10;99.90;;;;;;4994667;28;20225;-84
2022/04/02 06:45:45;;;;;;;15.93;14.37;;;5.20;99.90;;;;;;4976383;28;20181;-88
2022/04/02 06:48:13;;;;;;;15.13;13.63;;;5.20;99.90;;;;;;4993697;28;20217;-82
2022/04/02 06:50:40;;;;;;;15.93;14.33;;;5.30;99.90;;;;;;4993994;28;20171;-82
2022/04/02 06:53:06;;;;;;;14.87;13.47;;;5.40;99.90;;;;;;4996679;28;20178;-84
2022/04/02 06:55:32;;;;;;;14.97;13.47;;;5.40;99.90;;;;;;4996070;28;20279;-85
2022/04/02 06:57:59;;;;;;;16.53;14.43;;;5.40;99.90;;;;;;4994173;28;20598;-82
2022/04/02 07:00:25;;;;;;;15.97;14.27;;;5.30;99.90;;;;;;4993861;28;20178;-82
2022/04/02 07:02:52;;;;;;;15.57;14.07;;;5.40;99.90;;;;;;4994353;28;20180;-81
2022/04/02 07:05:18;;;;;;;14.80;13.23;;;5.50;99.90;;;;;;4994026;28;20235;-87
2022/04/02 07:07:45;;;;;;;14.67;13.23;;;5.50;99.90;;;;;;4994760;28;20205;-88
2022/04/02 07:10:13;;;;;;;14.00;12.70;;;5.50;99.90;;;;;;4996107;28;20179;-90
2022/04/02 07:12:38;;;;;;;14.53;13.13;;;5.50;99.90;;;;;;5003821;28;20173;-83
2022/04/02 07:15:06;;;;;;;14.33;12.80;;;5.60;99.90;;;;;;4999769;28;20176;-87
2022/04/02 07:17:31;;;;;;;14.47;13.00;;;5.60;99.90;;;;;;5001261;28;20186;-83
2022/04/02 07:19:59;;;;;;;14.00;12.60;;;5.60;99.90;;;;;;4995189;28;20184;-83
2022/04/02 07:22:26;;;;;;;14.33;13.00;;;5.60;99.90;;;;;;4995233;28;20235;-84
2022/04/02 07:24:53;;;;;;;13.37;12.17;;;5.70;99.90;;;;;;4997780;28;20182;-84
2022/04/02 07:27:27;;;;;;;15.30;12.77;;;5.80;99.90;;;;;;4996936;28;20208;-82
2022/04/02 07:29:54;;;;;;;13.13;11.93;;;5.80;99.90;;;;;;4998100;28;20534;-86
2022/04/02 07:32:20;;;;;;;13.20;11.90;;;5.80;99.90;;;;;;4980374;28;20178;-87
2022/04/02 07:34:46;;;;;;;13.90;12.53;;;5.70;99.90;;;;;;4997922;28;20585;-85
2022/04/02 07:37:11;;;;;;;13.97;12.57;;;5.60;99.90;;;;;;4997246;28;20198;-84
2022/04/02 07:40:06;;;;;;;12.63;11.43;;;5.60;99.90;;;;;;4996914;28;20273;-88
2022/04/02 07:42:49;;;;;;;13.87;12.47;;;5.50;99.90;;;;;;4997263;28;20176;-88
2022/04/02 07:45:20;;;;;;;13.80;12.50;;;5.50;99.90;;;;;;4997181;28;20212;-83
2022/04/02 07:47:56;;;;;;;13.77;12.47;;;5.60;99.90;;;;;;4997298;28;20197;-87
2022/04/02 07:50:24;;;;;;;12.57;11.40;;;5.60;99.90;;;;;;4997661;28;20162;-84
2022/04/02 07:52:53;;;;;;;13.27;12.00;;;5.60;99.90;;;;;;4996934;28;20203;-86
2022/04/02 07:55:20;;;;;;;13.87;12.47;;;5.60;99.90;;;;;;4999689;28;20514;-87
2022/04/02 07:57:51;;;;;;;13.43;12.13;;;5.60;99.90;;;;;;4981168;28;20181;-89
2022/04/02 08:00:20;;;;;;;13.47;12.23;;;5.60;99.90;;;;;;4997199;28;20354;-86
2022/04/02 08:02:48;;;;;;;12.60;11.30;;;5.60;99.90;;;;;;4999921;28;20257;-85
2022/04/02 08:05:16;;;;;;;13.23;11.93;;;5.60;99.90;;;;;;4997319;28;20530;-84
2022/04/02 08:07:50;;;;;;;13.83;12.47;;;5.60;99.90;;;;;;4996748;28;20202;-84
2022/04/02 08:10:17;;;;;;;12.90;11.70;;;5.60;99.90;;;;;;5010488;28;20153;-87
2022/04/02 08:12:44;;;;;;;14.03;12.13;;;5.70;99.90;;;;;;5019309;28;20217;-84
2022/04/02 08:15:12;;;;;;;13.30;12.00;;;5.70;99.90;;;;;;5011930;28;20207;-82
2022/04/02 08:17:42;;;;;;;13.17;11.87;;;5.70;99.90;;;;;;5000564;28;20197;-84
2022/04/02 08:20:09;;;;;;;13.17;11.77;;;5.70;99.90;;;;;;4981751;28;20674;-84
2022/04/02 08:22:35;;;;;;;13.40;12.10;;;5.70;99.90;;;;;;4997594;28;20205;-87
2022/04/02 08:25:01;;;;;;;13.20;12.00;;;5.80;99.90;;;;;;4979514;28;20530;-87
2022/04/02 08:27:48;;;;;;;13.37;12.07;;;5.70;99.90;;;;;;4995597;28;20206;-88
2022/04/02 08:30:33;;;;;;;12.47;11.27;;;5.70;99.90;;;;;;4998667;28;20167;-85
2022/04/02 08:33:22;;;;;;;12.37;11.17;;;5.80;99.90;;;;;;4996148;28;20171;-87
2022/04/02 08:36:16;;;;;;;13.33;11.97;;;5.90;99.90;;;;;;4979398;28;20181;-87
2022/04/02 08:38:47;;;;;;;12.33;11.10;;;5.90;99.90;;;;;;4996184;28;20166;-87
2022/04/02 08:42:00;;;;;;;12.47;11.20;;;6.00;99.90;;;;;;4996784;28;20726;-82
2022/04/02 08:44:50;;;;;;;12.40;11.20;;;6.10;99.90;;;;;;4996428;28;20165;-83
2022/04/02 08:47:39;;;;;;;11.27;10.27;;;6.10;99.90;;;;;;4995763;28;20256;-88
2022/04/02 08:50:10;;;;;;;12.70;11.50;;;6.10;99.90;;;;;;4996757;28;20169;-86
2022/04/02 08:52:54;;;;;;;12.87;11.60;;;6.20;99.90;;;;;;4996814;28;20522;-88
2022/04/02 08:55:34;;;;;;;11.10;10.07;;;6.30;99.90;;;;;;4998376;28;20640;-85
2022/04/02 08:58:08;;;;;;;11.57;10.47;;;6.30;99.90;;;;;;5009085;28;20229;-82
2022/04/02 09:00:39;;;;;;;12.10;11.00;;;6.30;99.90;;;;;;5008154;28;20234;-82
2022/04/02 09:03:30;;;;;;;11.00;10.00;;;6.20;99.90;;;;;;5002783;28;20617;-87
2022/04/02 09:06:14;;;;;;;11.57;10.47;;;6.20;99.90;;;;;;5001050;28;20578;-90
2022/04/02 09:09:03;;;;;;;12.03;10.83;;;6.30;99.90;;;;;;4998735;28;20205;-89
2022/04/02 09:11:41;;;;;;;11.57;10.47;;;6.30;99.90;;;;;;4997964;28;20169;-89
2022/04/02 09:14:32;;;;;;;12.53;11.33;;;6.40;99.90;;;;;;4979292;28;20169;-86
2022/04/02 09:17:30;;;;;;;12.27;11.17;;;6.40;99.90;;;;;;4996490;28;20158;-86
2022/04/02 09:20:20;;;;;;;10.87;9.83;;;6.40;99.90;;;;;;4995978;28;20159;-86
2022/04/02 09:23:06;;;;;;;12.37;11.17;;;6.30;99.90;;;;;;4995916;28;20197;-84
2022/04/02 09:25:50;;;;;;;12.70;10.93;;;6.20;99.90;;;;;;4996138;28;20166;-86
2022/04/02 09:28:37;;;;;;;11.80;10.70;;;6.20;99.90;;;;;;4995286;28;20206;-85
2022/04/02 09:31:19;;;;;;;11.30;10.20;;;6.20;99.90;;;;;;4995684;28;20244;-85
2022/04/02 09:34:09;;;;;;;10.80;9.80;;;6.10;99.90;;;;;;4995582;28;20165;-86
2022/04/02 09:36:44;;;;;;;11.33;10.23;;;6.00;99.90;;;;;;4995639;28;20209;-87
2022/04/02 09:39:23;;;;;;;11.97;10.77;;;6.00;99.90;;;;;;4994466;28;20162;-86
2022/04/02 09:42:26;;;;;;;11.50;10.50;;;6.00;99.90;;;;;;4998195;28;20189;-86
2022/04/02 09:44:59;;;;;;;12.23;10.93;;;6.00;99.90;;;;;;4996801;28;20231;-86
2022/04/02 09:48:06;;;;;;;12.00;10.90;;;6.00;99.90;;;;;;4995104;28;20296;-86
2022/04/02 09:50:35;;;;;;;13.47;12.17;;;6.00;99.90;;;;;;4997617;28;20260;-83
2022/04/02 09:53:41;;;;;;;12.03;10.93;;;5.90;99.90;;;;;;4996090;28;20171;-83
2022/04/02 09:56:23;;;;;;;12.03;10.90;;;5.90;99.90;;;;;;4938347;29;20185;-83
2022/04/02 09:59:05;;;;;;;12.13;11.03;;;5.80;99.90;;;;;;4921358;29;20183;-83
2022/04/02 10:02:05;;;;;;;11.73;10.60;;;5.90;99.90;;;;;;4921756;29;20190;-82
2022/04/02 10:04:40;;;;;;;12.10;10.90;;;5.90;99.90;;;;;;4934742;29;20187;-84
2022/04/02 10:07:23;;;;;;;11.87;10.77;;;5.90;99.90;;;;;;4947252;29;20160;-89
2022/04/02 10:09:57;;;;;;;12.00;10.87;;;5.90;99.90;;;;;;4933865;29;20253;-86
2022/04/02 10:12:26;;;;;;;11.50;10.30;;;5.90;99.90;;;;;;4946123;29;20256;-82
2022/04/02 10:14:57;;;;;;;12.73;11.43;;;6.00;99.90;;;;;;4942164;29;20180;-84
2022/04/02 10:17:29;;;;;;;12.17;10.97;;;5.90;99.90;;;;;;4942326;29;20200;-82
2022/04/02 10:19:57;;;;;;;11.97;10.87;;;5.90;99.90;;;;;;4939776;29;20303;-82
2022/04/02 10:22:43;;;;;;;12.00;10.80;;;5.90;99.90;;;;;;4936866;29;20225;-83
2022/04/02 10:25:11;;;;;;;12.63;11.43;;;6.00;99.90;;;;;;4936694;29;20208;-85
2022/04/02 10:27:39;;;;;;;11.80;10.70;;;6.00;99.90;;;;;;4936170;29;20238;-88
2022/04/02 10:30:08;;;;;;;13.03;11.60;;;6.00;99.90;;;;;;4968588;28;20519;-87
2022/04/02 10:32:57;;;;;;;12.90;11.67;;;6.00;99.90;;;;;;4978002;28;20273;-82
2022/04/02 10:35:27;;;;;;;12.33;11.17;;;6.00;99.90;;;;;;4978255;28;20194;-86
2022/04/02 10:38:15;;;;;;;12.80;11.60;;;6.00;99.90;;;;;;4997049;28;20219;-84
2022/04/02 10:40:46;;;;;;;12.20;11.03;;;6.10;99.90;;;;;;4975439;28;20362;-86
2022/04/02 10:43:27;;;;;;;11.93;10.73;;;6.10;99.90;;;;;;4980539;28;20178;-82
2022/04/02 10:45:56;;;;;;;13.00;11.80;;;6.10;99.90;;;;;;4982977;28;20174;-83
2022/04/02 10:50:49;;;;;;;12.97;11.77;;;6.20;99.90;;;;;;5045046;23;20260;-83
2022/04/02 10:53:18;;;;;;;12.53;11.23;;;6.30;99.90;;;;;;5047558;28;20240;-84
2022/04/02 10:55:46;;;;;;;11.70;10.60;;;6.30;99.90;;;;;;5038853;28;20179;-83
2022/04/02 10:58:14;;;;;;;13.20;11.80;;;6.30;99.90;;;;;;5023678;28;20230;-83
2022/04/02 11:00:45;;;;;;;12.77;11.57;;;6.20;99.90;;;;;;5044435;28;20180;-84
2022/04/02 11:03:42;;;;;;;12.83;11.63;;;6.30;99.90;;;;;;5042359;28;20251;-83
2022/04/02 11:06:09;;;;;;;12.70;11.50;;;6.30;99.90;;;;;;5042993;28;20193;-83
2022/04/02 11:08:35;;;;;;;13.10;11.77;;;6.30;99.90;;;;;;5042121;28;20219;-83
2022/04/02 11:11:30;;;;;;;14.10;12.03;;;6.20;99.90;;;;;;5022043;28;20184;-85
2022/04/02 11:14:02;;;;;;;13.60;12.17;;;6.10;99.90;;;;;;4957022;29;20187;-82
2022/04/02 11:16:40;;;;;;;12.70;11.50;;;6.20;99.90;;;;;;4955096;28;20189;-82
2022/04/02 11:22:17;;;;;;;12.70;11.50;;;6.30;99.90;;;;;;4955512;29;20167;-89
2022/04/02 11:24:53;;;;;;;12.93;11.57;;;6.30;99.90;;;;;;4945446;29;20186;-86
2022/04/02 11:27:25;;;;;;;12.70;11.50;;;6.20;99.90;;;;;;4956392;29;20207;-87
2022/04/02 11:29:51;;;;;;;11.73;10.70;;;6.20;99.90;;;;;;4955481;28;20187;-86
2022/04/02 11:32:25;;;;;;;12.03;10.93;;;6.40;99.90;;;;;;4957741;29;20188;-89
2022/04/02 11:34:52;;;;;;;11.97;10.83;;;6.60;99.90;;;;;;4955687;29;20223;-92
2022/04/02 11:37:31;;;;;;;13.47;11.33;;;6.70;99.90;;;;;;4956083;29;20196;-90
2022/04/02 11:40:04;;;;;;;12.30;11.10;;;6.80;99.90;;;;;;4954979;29;20182;-92
2022/04/02 11:42:34;;;;;;;11.77;10.67;;;6.90;99.90;;;;;;4960837;29;20195;-85
2022/04/02 11:45:11;;;;;;;12.30;11.20;;;7.00;99.90;;;;;;4961674;29;20184;-86
2022/04/02 11:47:45;;;;;;;11.23;10.23;;;7.00;99.90;;;;;;4959763;29;20197;-93
2022/04/02 11:50:12;;;;;;;11.77;10.70;;;7.00;99.90;;;;;;4989177;28;20361;-87
2022/04/02 11:52:53;;;;;;;11.57;10.50;;;7.00;99.90;;;;;;5041760;28;20180;-92
2022/04/02 11:55:21;;;;;;;11.30;10.30;;;6.90;99.90;;;;;;5038660;28;20165;-87
2022/04/02 11:58:12;;;;;;;12.00;10.83;;;6.80;99.90;;;;;;5039929;28;20180;-96
2022/04/02 12:00:43;;;;;;;11.00;10.00;;;6.80;99.90;;;;;;5054405;28;20179;-89
2022/04/02 12:03:43;;;;;;;10.43;9.43;;;6.80;99.90;;;;;;5040636;28;20188;-95
2022/04/02 12:06:11;;;;;;;10.50;9.60;;;6.90;99.90;;;;;;5047021;28;20176;-95
2022/04/02 12:08:41;;;;;;;10.90;9.87;;;6.90;99.90;;;;;;5042328;28;20216;-90
2022/04/02 12:11:10;;;;;;;10.77;9.87;;;6.80;99.90;;;;;;5041254;28;20172;-89
2022/04/02 12:13:36;;;;;;;11.20;10.20;;;6.80;99.90;;;;;;5040527;28;20171;-84
2022/04/02 12:16:09;;;;;;;11.90;10.80;;;7.00;99.90;;;;;;5041555;28;20186;-81
2022/04/02 12:19:00;;;;;;;11.17;10.07;;;7.20;99.90;;;;;;5044276;28;20164;-86
2022/04/02 12:21:36;;;;;;;9.63;8.83;;;7.20;99.90;;;;;;5042289;28;20176;-89
2022/04/02 12:24:05;;;;;;;10.80;9.70;;;7.10;99.90;;;;;;5043726;28;20519;-88
2022/04/02 12:26:31;;;;;;;10.63;9.63;;;7.00;99.90;;;;;;5044842;28;20178;-84
2022/04/02 12:29:00;;;;;;;8.90;8.10;;;7.00;99.90;;;;;;5043561;28;20209;-84
2022/04/02 12:31:27;;;;;;;9.97;9.00;;;6.90;99.90;;;;;;5043648;28;20534;-84
2022/04/02 12:33:54;;;;;;;9.80;8.90;;;6.80;99.90;;;;;;5045551;28;20537;-83
2022/04/02 12:36:35;;;;;;;9.43;8.63;;;6.70;99.90;;;;;;5050367;28;20172;-87
2022/04/02 12:39:10;;;;;;;9.40;8.60;;;6.70;99.90;;;;;;5053670;28;20177;-88
2022/04/02 12:42:05;;;;;;;11.77;10.57;;;6.70;99.90;;;;;;5026188;28;20183;-85
2022/04/02 12:44:31;;;;;;;10.63;9.63;;;6.80;99.90;;;;;;5025405;28;20199;-87
2022/04/02 12:47:14;;;;;;;12.43;11.23;;;6.80;99.90;;;;;;5041151;28;20170;-89
2022/04/02 12:49:40;;;;;;;10.37;9.37;;;6.80;99.90;;;;;;5036524;28;20220;-91
2022/04/02 12:52:16;;;;;;;11.17;10.17;;;7.00;99.90;;;;;;5038216;28;20624;-89
2022/04/02 12:54:44;;;;;;;9.90;9.10;;;7.20;99.90;;;;;;5020705;28;20184;-87
2022/04/02 12:57:12;;;;;;;11.33;9.93;;;7.30;99.90;;;;;;5036949;28;20173;-92
2022/04/02 12:59:51;;;;;;;11.50;10.33;;;7.40;99.90;;;;;;5037582;28;20226;-91
2022/04/02 13:02:20;;;;;;;10.43;9.50;;;7.50;99.90;;;;;;5038757;28;20164;-92
2022/04/02 13:04:57;;;;;;;10.17;9.27;;;7.60;99.90;;;;;;5038721;28;20165;-90